Time;durP1;ratioP1;P1;durP2;ratioP2;P2;SDS_P1;SDS_P2;PMS_P1;PMS_P2;Temp;Humidity;BMP_temperature;BMP_pressure;BME280_temperature;BME280_humidity;BME280_pressure;Samples;Min_cycle;Max_cycle;Signal;HPM_P1;HPM_P2
2023/01/09 00:01:51;;;;;;;21.73;20.83;;;21.40;65.40;;;;;;5034875;28;20556;-61
2023/01/09 00:04:20;;;;;;;21.43;20.53;;;21.30;65.20;;;;;;5034562;28;20476;-61
2023/01/09 00:06:52;;;;;;;21.10;20.30;;;21.30;65.10;;;;;;5034737;28;20539;-61
2023/01/09 00:09:19;;;;;;;21.23;20.37;;;21.30;65.30;;;;;;5034695;28;20518;-61
2023/01/09 00:11:46;;;;;;;21.33;20.23;;;21.30;65.30;;;;;;5034659;28;20464;-61
2023/01/09 00:14:13;;;;;;;21.33;20.37;;;21.30;65.50;;;;;;5034859;28;20449;-61
2023/01/09 00:16:40;;;;;;;20.70;19.90;;;21.30;65.50;;;;;;5034886;28;20456;-61
2023/01/09 00:19:07;;;;;;;21.10;20.10;;;21.30;65.50;;;;;;5034545;28;20445;-61
2023/01/09 00:21:36;;;;;;;21.27;20.37;;;21.30;65.60;;;;;;5034173;28;20479;-60
2023/01/09 00:24:04;;;;;;;21.20;20.30;;;21.20;65.50;;;;;;5034556;28;21071;-61
2023/01/09 00:26:30;;;;;;;21.90;20.70;;;21.20;65.60;;;;;;5034820;28;20783;-61
2023/01/09 00:28:57;;;;;;;21.63;20.20;;;21.20;65.70;;;;;;5034360;28;20531;-61
2023/01/09 00:31:24;;;;;;;23.23;22.03;;;21.20;65.90;;;;;;5034370;28;20467;-61
2023/01/09 00:33:56;;;;;;;21.27;20.30;;;21.20;65.90;;;;;;5034433;28;20530;-60
2023/01/09 00:36:22;;;;;;;20.97;19.93;;;21.20;66.00;;;;;;5034089;28;20456;-61
2023/01/09 00:38:51;;;;;;;20.87;19.97;;;21.20;66.10;;;;;;5034161;28;20885;-60
2023/01/09 00:41:22;;;;;;;20.90;20.10;;;21.20;66.10;;;;;;5034267;28;20461;-61
2023/01/09 00:43:57;;;;;;;20.57;19.77;;;21.20;66.20;;;;;;5034232;28;20445;-62
2023/01/09 00:46:31;;;;;;;20.50;19.70;;;21.20;66.10;;;;;;5033977;28;20444;-61
2023/01/09 00:48:58;;;;;;;20.67;19.80;;;21.20;66.20;;;;;;5034039;28;20450;-60
2023/01/09 00:51:26;;;;;;;20.60;19.80;;;21.20;66.30;;;;;;5033914;28;20469;-61
2023/01/09 00:53:55;;;;;;;21.20;20.40;;;21.10;66.20;;;;;;5033695;28;20798;-61
2023/01/09 00:56:24;;;;;;;20.87;19.97;;;21.10;66.20;;;;;;5033436;28;20445;-61
2023/01/09 00:58:52;;;;;;;21.30;20.40;;;21.10;66.30;;;;;;5033852;28;20444;-61
2023/01/09 01:01:18;;;;;;;21.33;20.33;;;21.10;66.30;;;;;;5033904;28;20465;-62
2023/01/09 01:03:45;;;;;;;20.90;20.00;;;21.10;66.30;;;;;;5033968;28;20845;-61
2023/01/09 01:08:58;;;;;;;20.60;19.80;;;21.10;67.00;;;;;;5033409;28;20574;-60
2023/01/09 01:11:25;;;;;;;23.40;22.50;;;21.10;66.30;;;;;;5033767;28;20548;-60
2023/01/09 01:13:52;;;;;;;20.77;19.87;;;21.10;66.30;;;;;;5033817;28;20445;-61
2023/01/09 01:16:19;;;;;;;20.30;19.50;;;21.10;66.40;;;;;;5033657;28;20870;-58
2023/01/09 01:18:46;;;;;;;20.50;19.70;;;21.10;66.50;;;;;;5033277;28;20540;-59
2023/01/09 01:21:14;;;;;;;20.60;19.80;;;21.10;66.60;;;;;;5033206;28;20487;-59
2023/01/09 01:23:41;;;;;;;20.60;19.80;;;21.10;66.60;;;;;;5033500;28;20539;-60
2023/01/09 01:26:12;;;;;;;20.87;20.07;;;21.10;66.60;;;;;;5032722;28;20572;-61
2023/01/09 01:28:39;;;;;;;20.70;19.90;;;21.10;66.60;;;;;;5033437;28;20490;-61
2023/01/09 01:31:06;;;;;;;20.57;19.77;;;21.10;66.60;;;;;;5033225;28;20461;-62
2023/01/09 01:33:34;;;;;;;21.50;20.50;;;21.10;66.70;;;;;;5033493;28;20451;-62
2023/01/09 01:36:02;;;;;;;20.90;20.07;;;21.10;66.70;;;;;;5033386;28;20437;-61
2023/01/09 01:38:29;;;;;;;20.90;20.00;;;21.00;66.70;;;;;;5033228;28;20838;-61
2023/01/09 01:40:57;;;;;;;20.87;20.07;;;21.00;66.70;;;;;;5032495;28;20469;-61
2023/01/09 01:43:25;;;;;;;20.90;20.10;;;21.00;66.70;;;;;;5033065;28;20544;-61
2023/01/09 01:45:52;;;;;;;21.10;20.20;;;21.00;66.70;;;;;;5033038;28;20487;-59
2023/01/09 01:48:22;;;;;;;20.90;20.00;;;21.00;66.70;;;;;;5033037;28;20441;-60
2023/01/09 01:50:53;;;;;;;20.80;20.00;;;21.00;66.80;;;;;;5032381;28;20455;-60
2023/01/09 01:53:25;;;;;;;20.50;19.70;;;21.00;66.80;;;;;;5032929;28;20455;-61
2023/01/09 01:56:04;;;;;;;21.20;20.00;;;21.00;66.70;;;;;;5013084;28;20958;-62
2023/01/09 01:58:34;;;;;;;20.80;20.00;;;21.00;66.60;;;;;;5028002;28;20453;-61
2023/01/09 02:01:00;;;;;;;20.70;19.80;;;21.10;66.70;;;;;;5032605;28;20477;-62
2023/01/09 02:03:29;;;;;;;20.87;20.07;;;21.00;66.70;;;;;;5032718;28;20445;-58
2023/01/09 02:05:55;;;;;;;20.63;19.83;;;21.00;66.70;;;;;;5032662;28;21018;-61
2023/01/09 02:08:23;;;;;;;20.60;19.80;;;21.00;66.80;;;;;;5031933;28;20939;-61
2023/01/09 02:10:51;;;;;;;20.50;19.60;;;21.00;66.80;;;;;;5032409;28;20877;-59
2023/01/09 02:13:19;;;;;;;21.03;20.20;;;21.00;66.90;;;;;;5032674;28;20445;-60
2023/01/09 02:16:01;;;;;;;20.60;19.80;;;21.00;66.90;;;;;;5032824;28;20442;-60
2023/01/09 02:18:54;;;;;;;20.50;19.70;;;21.00;67.00;;;;;;5032473;28;20824;-60
2023/01/09 02:21:34;;;;;;;20.90;20.10;;;21.00;67.10;;;;;;5028318;28;20611;-59
2023/01/09 02:24:36;;;;;;;20.43;19.63;;;21.00;67.10;;;;;;5032129;28;20969;-58
2023/01/09 02:27:48;;;;;;;20.80;19.90;;;20.90;67.00;;;;;;5032299;28;20443;-57
2023/01/09 02:30:30;;;;;;;20.60;19.80;;;20.90;67.00;;;;;;4984789;28;20445;-60
2023/01/09 02:33:20;;;;;;;21.27;20.30;;;20.90;67.00;;;;;;5032227;28;20460;-57
2023/01/09 02:36:19;;;;;;;20.77;19.97;;;20.90;67.10;;;;;;5023349;28;20829;-59
2023/01/09 02:38:54;;;;;;;20.83;20.03;;;20.90;67.10;;;;;;5027059;28;20445;-58
2023/01/09 02:41:25;;;;;;;20.40;19.70;;;20.90;67.10;;;;;;5032084;28;20915;-58
2023/01/09 02:44:11;;;;;;;20.90;20.00;;;20.90;67.10;;;;;;5032063;28;20528;-60
2023/01/09 02:46:39;;;;;;;21.10;20.00;;;20.90;67.00;;;;;;5031946;28;20477;-60
2023/01/09 02:49:07;;;;;;;20.87;20.00;;;20.90;67.00;;;;;;5031834;28;20536;-61
2023/01/09 02:51:40;;;;;;;21.13;20.27;;;20.90;67.10;;;;;;5032041;28;20461;-60
2023/01/09 02:54:26;;;;;;;20.83;20.03;;;20.90;67.00;;;;;;5031697;28;20476;-61
2023/01/09 02:57:09;;;;;;;20.30;19.60;;;21.00;67.10;;;;;;5031933;28;20528;-62
2023/01/09 02:59:50;;;;;;;20.80;20.00;;;20.90;66.90;;;;;;5031831;28;20445;-58
2023/01/09 03:02:39;;;;;;;20.97;20.17;;;21.00;67.00;;;;;;5031516;28;20800;-58
2023/01/09 03:05:14;;;;;;;20.90;20.10;;;20.90;67.60;;;;;;5031765;28;20575;-59
2023/01/09 03:07:47;;;;;;;20.60;19.80;;;20.90;66.90;;;;;;5031853;28;20500;-59
2023/01/09 03:10:19;;;;;;;20.60;19.80;;;20.90;66.80;;;;;;5031617;28;20946;-60
2023/01/09 03:12:49;;;;;;;20.50;19.70;;;20.90;66.80;;;;;;5032035;28;20552;-59
2023/01/09 03:15:19;;;;;;;20.50;19.80;;;20.90;66.90;;;;;;5031599;28;20441;-58
2023/01/09 03:17:49;;;;;;;20.80;20.00;;;20.90;67.00;;;;;;5032066;28;20533;-59
2023/01/09 03:20:20;;;;;;;20.70;19.90;;;20.90;66.90;;;;;;5038118;28;20444;-58
2023/01/09 03:22:54;;;;;;;20.50;19.60;;;20.90;67.00;;;;;;5038183;28;20493;-59
2023/01/09 03:25:21;;;;;;;20.70;19.90;;;20.90;66.80;;;;;;5038295;28;20851;-61
2023/01/09 03:27:52;;;;;;;20.50;19.70;;;20.90;66.70;;;;;;5036848;28;20519;-61
2023/01/09 03:30:19;;;;;;;21.10;20.20;;;20.90;66.60;;;;;;5037924;28;20447;-59
2023/01/09 03:32:47;;;;;;;20.47;19.67;;;20.90;66.60;;;;;;5037615;28;20467;-61
2023/01/09 03:35:14;;;;;;;20.47;19.70;;;20.90;66.50;;;;;;5037915;28;20486;-59
2023/01/09 03:37:41;;;;;;;20.80;19.80;;;20.90;66.50;;;;;;5038155;28;20441;-57
2023/01/09 03:40:09;;;;;;;20.50;19.70;;;20.90;67.30;;;;;;5038070;28;20635;-60
2023/01/09 03:42:36;;;;;;;20.57;19.77;;;20.90;66.40;;;;;;5037223;28;20491;-60
2023/01/09 03:45:04;;;;;;;21.40;20.60;;;20.90;66.50;;;;;;5035738;28;20463;-60
2023/01/09 03:47:30;;;;;;;20.80;20.00;;;20.90;66.70;;;;;;5037773;28;20524;-60
2023/01/09 03:49:59;;;;;;;21.00;19.93;;;20.90;66.90;;;;;;5037823;28;20476;-60
2023/01/09 03:52:26;;;;;;;21.40;20.43;;;20.90;67.00;;;;;;5037710;28;20555;-59
2023/01/09 03:54:54;;;;;;;20.60;19.80;;;20.90;67.10;;;;;;5037678;28;20953;-61
2023/01/09 03:57:22;;;;;;;20.40;19.60;;;20.90;67.30;;;;;;5037923;28;20483;-61
2023/01/09 03:59:49;;;;;;;20.63;19.73;;;20.90;67.40;;;;;;5034129;28;20437;-55
2023/01/09 04:02:17;;;;;;;20.63;19.83;;;20.90;67.40;;;;;;5018204;28;20470;-60
2023/01/09 04:04:44;;;;;;;20.50;19.50;;;20.80;67.30;;;;;;5018034;28;20932;-61
2023/01/09 04:07:12;;;;;;;20.80;20.00;;;20.80;67.30;;;;;;5017865;28;20485;-62
2023/01/09 04:09:39;;;;;;;20.60;19.80;;;20.90;67.50;;;;;;5031657;28;20520;-60
2023/01/09 04:12:07;;;;;;;20.43;19.63;;;20.90;67.60;;;;;;5038145;28;20580;-59
2023/01/09 04:14:34;;;;;;;20.77;19.87;;;20.90;67.60;;;;;;5037728;28;20531;-61
2023/01/09 04:17:01;;;;;;;21.13;20.33;;;20.90;67.50;;;;;;5033350;28;20924;-58
2023/01/09 04:19:28;;;;;;;21.30;20.40;;;20.90;67.40;;;;;;5017731;28;20450;-59
2023/01/09 04:21:54;;;;;;;20.60;19.80;;;20.90;67.30;;;;;;5017758;28;20484;-61
2023/01/09 04:24:23;;;;;;;20.50;19.60;;;21.00;67.40;;;;;;5021944;28;20536;-60
2023/01/09 04:26:50;;;;;;;20.33;19.53;;;21.00;67.30;;;;;;5038050;28;20484;-61
2023/01/09 04:29:17;;;;;;;20.60;19.80;;;21.00;67.30;;;;;;5037359;28;20453;-61
2023/01/09 04:31:44;;;;;;;20.53;19.73;;;21.00;67.10;;;;;;5033616;28;20885;-59
2023/01/09 04:34:11;;;;;;;20.60;19.80;;;21.00;67.10;;;;;;5034581;28;20455;-60
2023/01/09 04:36:38;;;;;;;20.47;19.67;;;21.00;67.00;;;;;;5034784;28;20998;-58
2023/01/09 04:39:05;;;;;;;20.70;19.90;;;21.10;67.10;;;;;;5034692;28;20453;-60
2023/01/09 04:41:48;;;;;;;20.40;19.60;;;21.00;67.00;;;;;;5033917;28;21033;-61
2023/01/09 04:44:16;;;;;;;20.67;19.87;;;21.00;66.90;;;;;;5034925;28;20579;-57
2023/01/09 04:46:43;;;;;;;20.70;19.90;;;21.10;66.90;;;;;;5034113;28;20567;-61
2023/01/09 04:49:10;;;;;;;21.10;20.30;;;21.10;66.80;;;;;;5034214;28;20528;-59
2023/01/09 04:51:37;;;;;;;21.50;20.60;;;21.10;66.80;;;;;;5026003;28;20501;-58
2023/01/09 04:54:04;;;;;;;21.10;20.20;;;21.10;66.90;;;;;;5015578;28;20450;-60
2023/01/09 04:56:32;;;;;;;21.10;20.20;;;21.10;66.80;;;;;;5023578;28;20441;-59
2023/01/09 04:59:00;;;;;;;21.30;20.20;;;21.10;66.90;;;;;;5034225;28;20445;-61
2023/01/09 05:01:26;;;;;;;21.80;20.90;;;21.10;66.90;;;;;;5033838;28;20461;-60
2023/01/09 05:03:54;;;;;;;21.83;20.93;;;21.10;66.90;;;;;;5033945;28;20449;-58
2023/01/09 05:06:21;;;;;;;21.40;20.60;;;21.10;66.80;;;;;;5033881;28;20491;-59
2023/01/09 05:08:47;;;;;;;21.50;20.60;;;21.10;66.80;;;;;;5033995;28;20495;-59
2023/01/09 05:11:15;;;;;;;21.60;20.70;;;21.20;66.90;;;;;;5033753;28;20469;-59
2023/01/09 05:13:43;;;;;;;21.67;20.77;;;21.20;66.90;;;;;;5033723;28;20861;-59
2023/01/09 05:16:10;;;;;;;22.07;21.17;;;21.20;66.80;;;;;;5033654;28;20472;-54
2023/01/09 05:18:37;;;;;;;22.00;21.10;;;21.20;66.70;;;;;;5032990;28;20488;-59
2023/01/09 05:23:29;;;;;;;22.40;21.40;;;21.20;66.50;;;;;;5072649;22;20573;-61
2023/01/09 05:25:56;;;;;;;21.63;20.73;;;21.20;66.40;;;;;;5035455;28;20244;-62
2023/01/09 05:28:23;;;;;;;21.80;20.80;;;21.20;66.30;;;;;;5035014;28;20535;-62
2023/01/09 05:30:52;;;;;;;22.17;21.27;;;21.30;66.40;;;;;;5034843;28;20473;-62
2023/01/09 05:33:19;;;;;;;21.73;20.70;;;21.30;66.50;;;;;;5035142;28;20885;-63
2023/01/09 05:35:46;;;;;;;22.33;21.37;;;21.30;66.60;;;;;;5035339;28;20451;-62
2023/01/09 05:38:13;;;;;;;22.63;21.40;;;21.30;66.60;;;;;;5035582;28;20509;-63
2023/01/09 05:40:40;;;;;;;23.10;21.60;;;21.40;66.80;;;;;;5036437;28;20449;-64
2023/01/09 05:43:07;;;;;;;23.83;22.37;;;21.40;67.10;;;;;;5036200;28;20756;-64
2023/01/09 05:45:34;;;;;;;24.40;22.80;;;21.40;67.50;;;;;;5035165;28;20505;-63
2023/01/09 05:48:02;;;;;;;26.60;24.50;;;21.40;70.50;;;;;;5039419;28;20445;-63
2023/01/09 05:50:29;;;;;;;24.93;23.03;;;21.50;71.70;;;;;;5038510;28;21006;-62
2023/01/09 05:52:56;;;;;;;24.67;23.03;;;21.50;71.80;;;;;;5039824;28;20559;-63
2023/01/09 05:55:23;;;;;;;26.10;24.30;;;21.50;71.50;;;;;;5038957;28;20540;-63
2023/01/09 05:57:50;;;;;;;24.77;23.10;;;21.50;70.80;;;;;;5040595;28;20473;-63
2023/01/09 06:00:18;;;;;;;26.10;24.40;;;21.60;70.30;;;;;;5040785;28;20452;-63
2023/01/09 06:02:44;;;;;;;26.87;25.13;;;21.60;69.80;;;;;;5041433;28;20479;-62
2023/01/09 06:05:13;;;;;;;25.90;24.27;;;21.60;69.20;;;;;;5039360;28;20532;-63
2023/01/09 06:07:40;;;;;;;27.53;25.23;;;21.60;68.70;;;;;;5041194;28;20485;-63
2023/01/09 06:10:08;;;;;;;28.23;26.40;;;21.60;68.20;;;;;;5042327;28;20445;-63
2023/01/09 06:12:35;;;;;;;25.53;23.67;;;21.70;67.90;;;;;;5040239;28;20465;-63
2023/01/09 06:15:02;;;;;;;25.00;23.20;;;21.70;67.50;;;;;;5040230;28;20500;-62
2023/01/09 06:17:29;;;;;;;24.47;22.50;;;21.70;67.20;;;;;;5039438;28;20866;-62
2023/01/09 06:19:55;;;;;;;24.57;23.00;;;21.70;66.90;;;;;;5040771;28;20876;-63
2023/01/09 06:22:24;;;;;;;24.87;23.07;;;21.70;66.60;;;;;;5041057;28;20501;-63
2023/01/09 06:24:50;;;;;;;23.60;22.30;;;21.70;66.30;;;;;;5041014;28;20451;-62
2023/01/09 06:27:17;;;;;;;23.73;22.23;;;21.70;66.00;;;;;;5040329;28;20592;-63
2023/01/09 06:29:44;;;;;;;22.53;21.40;;;21.70;65.80;;;;;;5040520;28;20476;-64
2023/01/09 06:32:11;;;;;;;23.40;22.00;;;21.70;65.60;;;;;;5040164;28;20461;-62
2023/01/09 06:34:38;;;;;;;22.87;21.67;;;21.80;65.50;;;;;;5039451;28;20524;-63
2023/01/09 06:37:04;;;;;;;23.87;22.57;;;21.70;65.20;;;;;;5039650;28;20516;-62
2023/01/09 06:39:33;;;;;;;23.93;22.50;;;21.70;65.00;;;;;;5038914;28;20449;-62
2023/01/09 06:41:59;;;;;;;23.97;22.70;;;21.70;64.80;;;;;;5039880;28;20532;-63
2023/01/09 06:44:26;;;;;;;23.23;21.87;;;21.70;64.50;;;;;;5039231;28;20866;-63
2023/01/09 06:46:53;;;;;;;22.50;21.50;;;21.70;64.50;;;;;;5039587;28;20569;-63
2023/01/09 06:49:22;;;;;;;23.80;22.50;;;21.70;64.40;;;;;;5038778;28;20533;-63
2023/01/09 06:51:49;;;;;;;23.67;22.37;;;21.70;64.20;;;;;;5036697;28;20468;-63
2023/01/09 06:54:16;;;;;;;23.53;22.27;;;21.70;64.00;;;;;;5038265;28;20818;-63
2023/01/09 06:56:45;;;;;;;23.00;21.90;;;21.70;63.90;;;;;;5039715;28;20451;-63
2023/01/09 06:59:12;;;;;;;25.93;24.37;;;21.70;64.60;;;;;;5039422;28;20516;-62
2023/01/09 07:01:39;;;;;;;24.00;22.87;;;21.70;63.70;;;;;;5037200;28;20487;-62
2023/01/09 07:04:06;;;;;;;22.80;21.60;;;21.60;63.40;;;;;;5035873;28;20448;-62
2023/01/09 07:06:34;;;;;;;24.27;23.07;;;21.60;63.40;;;;;;5035783;28;20997;-62
2023/01/09 07:09:00;;;;;;;26.33;24.90;;;21.60;63.20;;;;;;5036622;28;20666;-62
2023/01/09 07:11:27;;;;;;;22.70;21.70;;;21.60;63.20;;;;;;5038056;28;20559;-62
2023/01/09 07:13:55;;;;;;;23.30;21.90;;;21.60;63.10;;;;;;5037160;28;20469;-61
2023/01/09 07:16:22;;;;;;;23.10;21.63;;;21.60;63.00;;;;;;5038506;28;20529;-62
2023/01/09 07:18:49;;;;;;;22.43;21.43;;;21.60;63.00;;;;;;5038326;28;20505;-62
2023/01/09 07:21:16;;;;;;;23.63;22.27;;;21.50;62.80;;;;;;5038973;28;20449;-62
2023/01/09 07:23:42;;;;;;;23.17;21.87;;;21.50;62.80;;;;;;5036953;28;20823;-62
2023/01/09 07:26:09;;;;;;;22.80;21.73;;;21.50;62.70;;;;;;5035571;28;20455;-62
2023/01/09 07:28:36;;;;;;;23.10;22.00;;;21.50;62.70;;;;;;5035341;28;20440;-63
2023/01/09 07:31:06;;;;;;;22.83;21.80;;;21.50;62.60;;;;;;5035018;28;20449;-63
2023/01/09 07:33:33;;;;;;;22.90;21.90;;;21.50;62.60;;;;;;5035525;28;20543;-63
2023/01/09 07:36:00;;;;;;;22.60;21.50;;;21.50;62.60;;;;;;5036195;28;20450;-63
2023/01/09 07:38:27;;;;;;;22.77;21.60;;;21.50;62.50;;;;;;5037328;28;20540;-62
2023/01/09 07:40:53;;;;;;;22.13;21.20;;;21.40;62.40;;;;;;5038749;28;20459;-62
2023/01/09 07:43:20;;;;;;;22.57;21.50;;;21.40;62.50;;;;;;5039064;28;20529;-63
2023/01/09 07:45:47;;;;;;;22.80;21.70;;;21.40;62.40;;;;;;5038461;28;20475;-63
2023/01/09 07:48:15;;;;;;;22.40;21.30;;;21.40;62.40;;;;;;5039149;28;20827;-62
2023/01/09 07:50:42;;;;;;;22.20;21.20;;;21.40;62.30;;;;;;5038554;28;20472;-63
2023/01/09 07:53:09;;;;;;;23.07;21.97;;;21.40;62.30;;;;;;5038988;28;20496;-62
2023/01/09 07:55:36;;;;;;;23.87;22.87;;;21.40;62.30;;;;;;5037618;28;21002;-61
2023/01/09 07:58:02;;;;;;;24.27;23.20;;;21.30;62.20;;;;;;5038847;28;20474;-62
2023/01/09 08:00:29;;;;;;;22.37;21.37;;;21.30;62.20;;;;;;5038836;28;20449;-62
2023/01/09 08:02:56;;;;;;;23.83;22.83;;;21.30;62.10;;;;;;5038793;28;20504;-61
2023/01/09 08:05:24;;;;;;;23.70;22.60;;;21.30;62.10;;;;;;5037722;28;20954;-64
2023/01/09 08:07:51;;;;;;;22.17;21.07;;;21.30;62.10;;;;;;5041885;28;20483;-61
2023/01/09 08:10:19;;;;;;;23.10;22.00;;;21.30;62.10;;;;;;5043780;28;20539;-63
2023/01/09 08:12:46;;;;;;;21.70;20.80;;;21.20;61.90;;;;;;5043589;28;20548;-63
2023/01/09 08:15:13;;;;;;;22.70;21.70;;;21.20;61.90;;;;;;5044325;28;20444;-62
2023/01/09 08:17:42;;;;;;;22.43;21.30;;;21.20;61.90;;;;;;5045347;28;20473;-63
2023/01/09 08:20:10;;;;;;;24.07;23.07;;;21.20;61.80;;;;;;5044936;28;20455;-63
2023/01/09 08:22:40;;;;;;;21.90;20.90;;;21.20;61.80;;;;;;5045145;28;20522;-63
2023/01/09 08:25:08;;;;;;;21.57;20.67;;;21.20;61.90;;;;;;5044909;28;20475;-63
2023/01/09 08:27:35;;;;;;;21.67;20.70;;;21.10;61.70;;;;;;5039419;28;20485;-63
2023/01/09 08:30:03;;;;;;;21.87;20.93;;;21.10;61.60;;;;;;5038375;28;20531;-63
2023/01/09 08:32:30;;;;;;;21.20;20.30;;;21.10;61.60;;;;;;5039499;28;20979;-63
2023/01/09 08:34:56;;;;;;;20.67;19.77;;;21.10;61.70;;;;;;5039576;28;20537;-62
2023/01/09 08:37:23;;;;;;;23.20;22.20;;;21.10;61.60;;;;;;5039205;28;20513;-63
2023/01/09 08:39:52;;;;;;;21.10;20.20;;;21.10;61.50;;;;;;5037897;28;20455;-63
2023/01/09 08:47:48;;;;;;;21.70;20.80;;;21.00;61.10;;;;;;5037960;28;21120;-63
2023/01/09 08:50:15;;;;;;;22.00;20.90;;;21.00;60.90;;;;;;5037636;28;20449;-62
2023/01/09 08:52:41;;;;;;;21.37;20.47;;;21.00;60.90;;;;;;5038239;28;20528;-63
2023/01/09 08:55:10;;;;;;;21.10;20.30;;;21.00;60.90;;;;;;5037757;28;20985;-62
2023/01/09 08:57:37;;;;;;;21.17;20.27;;;21.00;60.80;;;;;;5038755;28;20528;-62
2023/01/09 09:00:05;;;;;;;21.50;20.40;;;21.00;60.70;;;;;;5040941;28;20453;-62
2023/01/09 09:02:31;;;;;;;21.40;20.40;;;21.00;60.60;;;;;;5039477;28;20479;-62
2023/01/09 09:04:58;;;;;;;21.20;20.40;;;20.90;60.40;;;;;;5039648;28;20483;-63
2023/01/09 09:07:26;;;;;;;21.47;20.57;;;20.90;60.30;;;;;;5040922;28;20640;-62
2023/01/09 09:09:53;;;;;;;21.30;20.40;;;20.90;60.30;;;;;;5043407;28;20460;-62
2023/01/09 09:12:22;;;;;;;21.60;20.70;;;20.90;61.00;;;;;;5042939;28;20469;-62
2023/01/09 09:17:34;;;;;;;22.67;21.67;;;20.90;60.30;;;;;;5041650;28;20424;-62
2023/01/09 09:20:01;;;;;;;21.90;21.00;;;20.80;60.00;;;;;;5039497;28;20969;-62
2023/01/09 09:22:27;;;;;;;22.13;21.13;;;20.80;59.90;;;;;;5038228;28;20567;-62
2023/01/09 09:24:54;;;;;;;22.47;21.50;;;20.80;60.00;;;;;;5040192;28;20460;-62
2023/01/09 09:27:22;;;;;;;22.43;21.53;;;20.80;59.90;;;;;;5038246;28;20487;-61
2023/01/09 09:29:49;;;;;;;22.50;21.60;;;20.70;59.80;;;;;;5038816;28;20527;-62
2023/01/09 09:32:16;;;;;;;22.30;21.30;;;20.70;59.90;;;;;;5040904;28;20493;-61
2023/01/09 09:34:43;;;;;;;22.73;21.70;;;20.70;59.90;;;;;;5041511;28;20448;-61
2023/01/09 09:37:09;;;;;;;22.20;21.30;;;20.70;59.90;;;;;;5039994;28;20504;-61
2023/01/09 09:39:36;;;;;;;22.90;21.90;;;20.70;59.90;;;;;;5040623;28;20468;-62
2023/01/09 09:45:22;;;;;;;22.13;21.10;;;20.70;59.90;;;;;;5038062;28;20444;-62
2023/01/09 09:48:01;;;;;;;22.00;21.00;;;20.70;59.70;;;;;;5038307;28;20543;-62
2023/01/09 09:51:02;;;;;;;21.50;20.60;;;20.60;59.70;;;;;;5038399;28;20523;-62
2023/01/09 09:53:36;;;;;;;21.17;20.37;;;20.60;59.60;;;;;;5039325;28;20480;-63
2023/01/09 09:56:03;;;;;;;20.93;20.13;;;20.60;59.70;;;;;;5039976;28;20444;-61
2023/01/09 09:58:37;;;;;;;21.27;20.47;;;20.60;59.70;;;;;;5041382;28;20517;-61
2023/01/09 10:01:07;;;;;;;22.70;21.77;;;20.60;59.70;;;;;;5040096;28;20441;-62
2023/01/09 10:03:37;;;;;;;22.60;21.60;;;20.60;59.60;;;;;;5038763;28;20445;-62
2023/01/09 10:06:08;;;;;;;22.43;21.53;;;20.60;59.40;;;;;;5038209;28;20460;-62
2023/01/09 10:08:40;;;;;;;22.40;21.40;;;20.60;59.40;;;;;;5038841;28;20509;-62
2023/01/09 10:11:16;;;;;;;22.90;21.83;;;20.50;59.30;;;;;;5039478;28;20445;-62
2023/01/09 10:16:41;;;;;;;22.30;21.30;;;20.50;59.10;;;;;;5037404;28;20429;-62
2023/01/09 10:19:23;;;;;;;22.47;21.47;;;20.50;59.20;;;;;;5038080;28;20950;-62
2023/01/09 10:22:01;;;;;;;22.90;21.80;;;20.50;59.10;;;;;;5038544;28;21064;-62
2023/01/09 10:24:40;;;;;;;22.07;21.17;;;20.50;59.70;;;;;;5037795;28;20448;-62
2023/01/09 10:27:17;;;;;;;22.63;21.63;;;20.40;59.00;;;;;;5037776;28;20445;-62
2023/01/09 10:29:55;;;;;;;22.27;21.33;;;20.40;59.00;;;;;;5038087;28;20449;-63
2023/01/09 10:32:36;;;;;;;22.50;21.50;;;20.40;58.90;;;;;;5038594;28;20471;-63
2023/01/09 10:35:23;;;;;;;22.90;21.80;;;20.40;58.90;;;;;;5039388;28;20509;-63
2023/01/09 10:37:52;;;;;;;22.50;21.50;;;20.40;58.80;;;;;;5039029;28;20440;-63
2023/01/09 10:40:24;;;;;;;22.60;21.50;;;20.40;58.80;;;;;;5038982;28;20452;-63
2023/01/09 10:42:54;;;;;;;22.40;21.50;;;20.30;58.70;;;;;;5040558;28;20545;-63
2023/01/09 10:45:25;;;;;;;22.97;21.97;;;20.40;58.80;;;;;;5039020;28;20469;-63
2023/01/09 10:47:56;;;;;;;23.20;22.20;;;20.30;58.70;;;;;;5039147;28;20495;-63
2023/01/09 10:50:25;;;;;;;22.90;21.80;;;20.30;58.70;;;;;;5038214;28;20475;-64
2023/01/09 10:52:53;;;;;;;22.77;21.73;;;20.30;58.70;;;;;;5038894;28;20473;-63
2023/01/09 10:55:32;;;;;;;22.47;21.47;;;20.30;58.70;;;;;;5039542;28;20451;-63
2023/01/09 10:58:02;;;;;;;22.70;21.70;;;20.30;58.70;;;;;;5038995;28;20445;-62
2023/01/09 11:00:29;;;;;;;22.30;21.40;;;20.30;58.70;;;;;;5038281;28;20445;-62
2023/01/09 11:02:57;;;;;;;22.67;21.57;;;20.20;58.60;;;;;;5036761;28;20469;-61
2023/01/09 11:05:26;;;;;;;21.47;20.57;;;20.20;58.50;;;;;;5037846;28;20517;-61
2023/01/09 11:07:58;;;;;;;21.33;20.43;;;20.20;58.50;;;;;;5039513;28;20516;-61
2023/01/09 11:10:45;;;;;;;21.77;20.87;;;20.20;59.00;;;;;;5038692;28;20540;-62
2023/01/09 11:13:15;;;;;;;21.33;20.40;;;20.20;58.60;;;;;;5040272;28;20898;-62
2023/01/09 11:15:42;;;;;;;21.70;20.67;;;20.20;58.60;;;;;;5038138;28;20449;-62
2023/01/09 11:18:23;;;;;;;21.17;20.30;;;20.20;58.50;;;;;;5038833;28;20518;-62
2023/01/09 11:20:51;;;;;;;21.20;20.30;;;20.10;58.40;;;;;;5036102;28;20509;-62
2023/01/09 11:23:27;;;;;;;22.27;21.27;;;20.20;58.50;;;;;;5033738;28;20824;-62
2023/01/09 11:25:55;;;;;;;21.00;20.20;;;20.10;58.40;;;;;;5033073;28;20444;-60
2023/01/09 11:28:22;;;;;;;21.60;20.70;;;20.10;58.40;;;;;;5032962;28;20842;-62
2023/01/09 11:30:55;;;;;;;21.20;20.40;;;20.10;58.40;;;;;;5032762;28;20880;-60
2023/01/09 11:33:25;;;;;;;21.20;20.30;;;20.10;58.50;;;;;;5032763;28;20552;-60
2023/01/09 11:36:00;;;;;;;21.50;20.40;;;20.10;58.40;;;;;;5032373;28;20441;-60
2023/01/09 11:38:29;;;;;;;21.77;20.87;;;20.10;58.30;;;;;;5033025;28;20441;-61
2023/01/09 11:40:59;;;;;;;21.20;20.40;;;20.10;58.30;;;;;;5036079;28;20444;-61
2023/01/09 11:43:32;;;;;;;21.70;20.80;;;20.00;58.20;;;;;;5036663;28;20962;-61
2023/01/09 11:46:02;;;;;;;21.20;20.40;;;20.00;58.30;;;;;;5036787;28;20445;-60
2023/01/09 11:48:33;;;;;;;21.40;20.53;;;20.00;58.30;;;;;;5036581;28;20477;-59
2023/01/09 11:51:02;;;;;;;21.10;20.30;;;20.00;58.30;;;;;;5036236;28;20449;-61
2023/01/09 11:53:29;;;;;;;21.30;20.40;;;20.00;58.30;;;;;;5036406;28;20490;-59
2023/01/09 11:56:00;;;;;;;21.60;20.70;;;20.00;58.30;;;;;;5036575;28;20440;-60
2023/01/09 11:58:31;;;;;;;21.00;20.20;;;20.00;58.30;;;;;;5036567;28;20441;-60
2023/01/09 12:01:12;;;;;;;21.90;21.00;;;20.00;58.30;;;;;;5036524;28;20450;-59
2023/01/09 12:04:08;;;;;;;22.63;21.63;;;19.90;58.20;;;;;;5036527;28;20822;-59
2023/01/09 12:06:47;;;;;;;22.90;21.90;;;19.90;58.20;;;;;;5036197;28;20444;-59
2023/01/09 12:09:20;;;;;;;22.90;21.90;;;19.90;58.20;;;;;;5035760;28;21100;-60
2023/01/09 12:11:53;;;;;;;22.40;21.50;;;19.90;58.20;;;;;;5035268;28;20909;-61
2023/01/09 12:14:42;;;;;;;22.60;21.30;;;19.90;58.20;;;;;;5035255;28;20455;-63
2023/01/09 12:17:47;;;;;;;22.10;21.20;;;19.80;58.10;;;;;;5035053;28;20475;-62
2023/01/09 12:20:33;;;;;;;22.20;21.30;;;19.90;58.20;;;;;;5034671;28;20467;-63
2023/01/09 12:23:11;;;;;;;22.30;21.30;;;19.80;58.20;;;;;;5034731;28;20852;-63
2023/01/09 12:25:49;;;;;;;22.80;21.80;;;19.80;58.20;;;;;;5035095;28;20451;-62
2023/01/09 12:28:52;;;;;;;22.00;21.10;;;19.80;58.10;;;;;;5035141;28;20492;-62
2023/01/09 12:31:32;;;;;;;22.27;21.37;;;19.80;58.20;;;;;;4999430;28;20449;-61
2023/01/09 12:34:11;;;;;;;22.17;21.17;;;19.80;58.20;;;;;;5034998;28;20506;-64
2023/01/09 12:36:48;;;;;;;21.87;20.97;;;19.80;58.20;;;;;;5035159;28;20448;-59
2023/01/09 12:39:28;;;;;;;22.20;21.30;;;19.80;58.30;;;;;;5034912;28;20455;-63
2023/01/09 12:42:05;;;;;;;22.10;21.20;;;19.70;58.10;;;;;;5035307;28;20495;-60
2023/01/09 12:44:52;;;;;;;22.37;21.37;;;19.80;58.70;;;;;;5035164;28;20455;-60
2023/01/09 12:47:49;;;;;;;22.50;21.50;;;19.80;58.30;;;;;;5035203;28;20453;-61
2023/01/09 12:51:01;;;;;;;22.10;21.20;;;19.70;58.20;;;;;;5030323;28;20571;-60
2023/01/09 12:53:33;;;;;;;21.80;20.90;;;19.70;58.20;;;;;;5035495;28;21004;-61
2023/01/09 12:56:04;;;;;;;21.50;20.50;;;19.70;58.20;;;;;;5036295;28;20449;-60
2023/01/09 12:58:38;;;;;;;21.93;21.03;;;19.70;58.20;;;;;;5036613;28;20443;-63
2023/01/09 13:01:13;;;;;;;21.90;20.90;;;19.70;58.10;;;;;;5035608;28;20516;-63
2023/01/09 13:03:45;;;;;;;22.00;21.10;;;19.70;58.10;;;;;;5035363;28;20436;-63
2023/01/09 13:06:16;;;;;;;21.53;20.63;;;19.60;58.10;;;;;;5035693;28;20451;-64